sensor_id;sensor_type;location;lat;lon;timestamp;temperature;humidity
55812;DHT22;41742;52.048;6.092;2022-11-12T00:00:57;5.80;99.90
55812;DHT22;41742;52.048;6.092;2022-11-12T00:03:42;5.70;99.90
55812;DHT22;41742;52.048;6.092;2022-11-12T00:06:26;5.70;99.90
55812;DHT22;41742;52.048;6.092;2022-11-12T00:09:10;5.70;99.90
55812;DHT22;41742;52.048;6.092;2022-11-12T00:11:54;5.70;99.90
55812;DHT22;41742;52.048;6.092;2022-11-12T00:14:38;5.60;99.90
55812;DHT22;41742;52.048;6.092;2022-11-12T00:17:22;5.60;99.90
55812;DHT22;41742;52.048;6.092;2022-11-12T00:20:07;5.60;99.90
55812;DHT22;41742;52.048;6.092;2022-11-12T00:22:51;5.70;99.90
55812;DHT22;41742;52.048;6.092;2022-11-12T00:25:35;5.60;99.90
55812;DHT22;41742;52.048;6.092;2022-11-12T00:28:20;5.60;99.90
55812;DHT22;41742;52.048;6.092;2022-11-12T00:31:09;5.60;99.90
55812;DHT22;41742;52.048;6.092;2022-11-12T00:33:54;5.60;99.90
55812;DHT22;41742;52.048;6.092;2022-11-12T00:36:38;5.60;99.90
55812;DHT22;41742;52.048;6.092;2022-11-12T00:39:22;5.60;99.90
55812;DHT22;41742;52.048;6.092;2022-11-12T00:42:06;5.50;99.90
55812;DHT22;41742;52.048;6.092;2022-11-12T00:44:50;5.40;99.90
55812;DHT22;41742;52.048;6.092;2022-11-12T00:47:34;5.40;99.90
55812;DHT22;41742;52.048;6.092;2022-11-12T00:50:18;5.40;99.90
55812;DHT22;41742;52.048;6.092;2022-11-12T00:53:02;5.30;99.90
55812;DHT22;41742;52.048;6.092;2022-11-12T00:55:46;5.30;99.90
55812;DHT22;41742;52.048;6.092;2022-11-12T00:58:31;5.30;99.90
55812;DHT22;41742;52.048;6.092;2022-11-12T01:01:16;5.30;99.90
55812;DHT22;41742;52.048;6.092;2022-11-12T01:04:00;5.20;99.90
55812;DHT22;41742;52.048;6.092;2022-11-12T01:06:44;5.30;99.90
55812;DHT22;41742;52.048;6.092;2022-11-12T01:09:28;5.30;99.90
55812;DHT22;41742;52.048;6.092;2022-11-12T01:12:12;5.30;99.90
55812;DHT22;41742;52.048;6.092;2022-11-12T01:14:56;5.30;99.90
55812;DHT22;41742;52.048;6.092;2022-11-12T01:17:40;5.30;99.90
55812;DHT22;41742;52.048;6.092;2022-11-12T01:20:24;5.30;99.90
55812;DHT22;41742;52.048;6.092;2022-11-12T01:23:09;5.30;99.90
55812;DHT22;41742;52.048;6.092;2022-11-12T01:25:53;5.20;99.90
55812;DHT22;41742;52.048;6.092;2022-11-12T01:28:37;5.20;99.90
55812;DHT22;41742;52.048;6.092;2022-11-12T01:31:33;5.10;99.90
55812;DHT22;41742;52.048;6.092;2022-11-12T01:34:18;5.10;99.90
55812;DHT22;41742;52.048;6.092;2022-11-12T01:37:02;5.10;99.90
55812;DHT22;41742;52.048;6.092;2022-11-12T01:39:46;5.10;99.90
55812;DHT22;41742;52.048;6.092;2022-11-12T01:42:31;5.00;99.90
55812;DHT22;41742;52.048;6.092;2022-11-12T01:45:16;4.90;99.90
55812;DHT22;41742;52.048;6.092;2022-11-12T01:48:00;4.90;99.90
55812;DHT22;41742;52.048;6.092;2022-11-12T01:50:46;4.90;99.90
55812;DHT22;41742;52.048;6.092;2022-11-12T01:53:34;4.80;99.90
55812;DHT22;41742;52.048;6.092;2022-11-12T01:56:20;4.80;99.90
55812;DHT22;41742;52.048;6.092;2022-11-12T01:59:11;4.80;99.90
55812;DHT22;41742;52.048;6.092;2022-11-12T02:01:57;4.90;99.90
55812;DHT22;41742;52.048;6.092;2022-11-12T02:04:42;4.90;99.90
55812;DHT22;41742;52.048;6.092;2022-11-12T02:07:27;4.80;99.90
55812;DHT22;41742;52.048;6.092;2022-11-12T02:10:13;4.90;99.90
55812;DHT22;41742;52.048;6.092;2022-11-12T02:12:58;4.80;99.90
55812;DHT22;41742;52.048;6.092;2022-11-12T02:16:02;4.70;99.90
55812;DHT22;41742;52.048;6.092;2022-11-12T02:18:47;4.70;99.90
55812;DHT22;41742;52.048;6.092;2022-11-12T02:21:31;4.70;99.90
55812;DHT22;41742;52.048;6.092;2022-11-12T02:27:00;4.70;99.90
55812;DHT22;41742;52.048;6.092;2022-11-12T02:29:44;4.70;99.90
55812;DHT22;41742;52.048;6.092;2022-11-12T02:32:32;4.70;99.90
55812;DHT22;41742;52.048;6.092;2022-11-12T02:35:16;4.60;99.90
55812;DHT22;41742;52.048;6.092;2022-11-12T02:38:00;4.70;99.90
55812;DHT22;41742;52.048;6.092;2022-11-12T02:40:44;4.60;99.90
55812;DHT22;41742;52.048;6.092;2022-11-12T02:43:28;4.70;99.90
55812;DHT22;41742;52.048;6.092;2022-11-12T02:46:12;4.70;99.90
55812;DHT22;41742;52.048;6.092;2022-11-12T02:48:57;4.70;99.90
55812;DHT22;41742;52.048;6.092;2022-11-12T02:51:41;4.70;99.90
55812;DHT22;41742;52.048;6.092;2022-11-12T02:54:25;4.60;99.90
55812;DHT22;41742;52.048;6.092;2022-11-12T02:57:09;4.60;99.90
55812;DHT22;41742;52.048;6.092;2022-11-12T02:59:53;4.60;99.90
55812;DHT22;41742;52.048;6.092;2022-11-12T03:02:37;4.60;99.90
55812;DHT22;41742;52.048;6.092;2022-11-12T03:05:42;4.60;99.90
55812;DHT22;41742;52.048;6.092;2022-11-12T03:08:27;4.60;99.90
55812;DHT22;41742;52.048;6.092;2022-11-12T03:11:13;4.60;99.90
55812;DHT22;41742;52.048;6.092;2022-11-12T03:13:58;4.50;99.90
55812;DHT22;41742;52.048;6.092;2022-11-12T03:16:42;4.50;99.90
55812;DHT22;41742;52.048;6.092;2022-11-12T03:19:26;4.50;99.90
55812;DHT22;41742;52.048;6.092;2022-11-12T03:22:10;4.50;99.90
55812;DHT22;41742;52.048;6.092;2022-11-12T03:24:54;4.50;99.90
55812;DHT22;41742;52.048;6.092;2022-11-12T03:27:38;4.40;99.90
55812;DHT22;41742;52.048;6.092;2022-11-12T03:30:27;4.40;99.90
55812;DHT22;41742;52.048;6.092;2022-11-12T03:33:13;4.40;99.90
55812;DHT22;41742;52.048;6.092;2022-11-12T03:35:58;4.40;99.90
55812;DHT22;41742;52.048;6.092;2022-11-12T03:38:42;4.50;99.90
55812;DHT22;41742;52.048;6.092;2022-11-12T03:41:26;4.50;99.90
55812;DHT22;41742;52.048;6.092;2022-11-12T03:44:10;4.50;99.90
55812;DHT22;41742;52.048;6.092;2022-11-12T03:46:54;4.50;99.90
55812;DHT22;41742;52.048;6.092;2022-11-12T03:49:38;4.60;99.90
55812;DHT22;41742;52.048;6.092;2022-11-12T03:52:22;4.60;99.90
55812;DHT22;41742;52.048;6.092;2022-11-12T03:55:06;4.60;99.90
55812;DHT22;41742;52.048;6.092;2022-11-12T03:57:51;4.50;99.90
55812;DHT22;41742;52.048;6.092;2022-11-12T04:00:36;4.50;99.90
55812;DHT22;41742;52.048;6.092;2022-11-12T04:03:20;4.60;99.90
55812;DHT22;41742;52.048;6.092;2022-11-12T04:06:05;4.50;99.90
55812;DHT22;41742;52.048;6.092;2022-11-12T04:09:08;4.50;99.90
55812;DHT22;41742;52.048;6.092;2022-11-12T04:11:51;4.50;99.90
55812;DHT22;41742;52.048;6.092;2022-11-12T04:14:35;4.50;99.90
55812;DHT22;41742;52.048;6.092;2022-11-12T04:17:19;4.50;99.90
55812;DHT22;41742;52.048;6.092;2022-11-12T04:20:22;4.50;99.90
55812;DHT22;41742;52.048;6.092;2022-11-12T04:23:26;4.40;99.90
55812;DHT22;41742;52.048;6.092;2022-11-12T04:26:10;4.50;99.90
55812;DHT22;41742;52.048;6.092;2022-11-12T04:29:06;4.50;99.90
55812;DHT22;41742;52.048;6.092;2022-11-12T04:32:09;4.50;99.90
55812;DHT22;41742;52.048;6.092;2022-11-12T04:34:54;4.40;99.90
55812;DHT22;41742;52.048;6.092;2022-11-12T04:37:39;4.40;99.90
55812;DHT22;41742;52.048;6.092;2022-11-12T04:40:29;4.40;99.90
55812;DHT22;41742;52.048;6.092;2022-11-12T04:43:33;4.40;99.90
55812;DHT22;41742;52.048;6.092;2022-11-12T04:46:36;4.30;99.90
55812;DHT22;41742;52.048;6.092;2022-11-12T04:49:20;4.30;99.90
55812;DHT22;41742;52.048;6.092;2022-11-12T04:52:04;4.30;99.90
55812;DHT22;41742;52.048;6.092;2022-11-12T04:54:48;4.30;99.90
55812;DHT22;41742;52.048;6.092;2022-11-12T04:57:33;4.30;99.90
55812;DHT22;41742;52.048;6.092;2022-11-12T05:00:17;4.30;99.90
55812;DHT22;41742;52.048;6.092;2022-11-12T05:03:02;4.30;99.90
55812;DHT22;41742;52.048;6.092;2022-11-12T05:05:46;4.30;99.90
55812;DHT22;41742;52.048;6.092;2022-11-12T05:08:30;4.40;99.90
55812;DHT22;41742;52.048;6.092;2022-11-12T05:11:14;4.20;99.90
55812;DHT22;41742;52.048;6.092;2022-11-12T05:13:58;4.20;99.90
55812;DHT22;41742;52.048;6.092;2022-11-12T05:16:44;4.10;99.90
55812;DHT22;41742;52.048;6.092;2022-11-12T05:19:28;4.20;99.90
55812;DHT22;41742;52.048;6.092;2022-11-12T05:22:13;4.20;99.90
55812;DHT22;41742;52.048;6.092;2022-11-12T05:24:57;4.20;99.90
55812;DHT22;41742;52.048;6.092;2022-11-12T05:27:41;4.10;99.90
55812;DHT22;41742;52.048;6.092;2022-11-12T05:30:25;4.10;99.90
55812;DHT22;41742;52.048;6.092;2022-11-12T05:33:09;4.10;99.90
55812;DHT22;41742;52.048;6.092;2022-11-12T05:35:55;4.20;99.90
55812;DHT22;41742;52.048;6.092;2022-11-12T05:38:40;4.20;99.90
55812;DHT22;41742;52.048;6.092;2022-11-12T05:41:24;4.10;99.90
55812;DHT22;41742;52.048;6.092;2022-11-12T05:44:08;4.10;99.90
55812;DHT22;41742;52.048;6.092;2022-11-12T05:46:52;4.10;99.90
55812;DHT22;41742;52.048;6.092;2022-11-12T05:49:37;4.00;99.90
55812;DHT22;41742;52.048;6.092;2022-11-12T05:52:21;4.00;99.90
55812;DHT22;41742;52.048;6.092;2022-11-12T05:55:05;3.90;99.90
55812;DHT22;41742;52.048;6.092;2022-11-12T05:57:49;3.90;99.90
55812;DHT22;41742;52.048;6.092;2022-11-12T06:00:34;3.80;99.90
55812;DHT22;41742;52.048;6.092;2022-11-12T06:03:25;3.80;99.90
55812;DHT22;41742;52.048;6.092;2022-11-12T06:06:09;3.80;99.90
55812;DHT22;41742;52.048;6.092;2022-11-12T06:08:54;3.70;99.90
55812;DHT22;41742;52.048;6.092;2022-11-12T06:11:38;3.80;99.90
55812;DHT22;41742;52.048;6.092;2022-11-12T06:14:23;3.80;99.90
55812;DHT22;41742;52.048;6.092;2022-11-12T06:17:06;3.80;99.90
55812;DHT22;41742;52.048;6.092;2022-11-12T06:19:51;3.80;99.90
55812;DHT22;41742;52.048;6.092;2022-11-12T06:22:35;3.90;99.90
55812;DHT22;41742;52.048;6.092;2022-11-12T06:25:19;3.70;99.90
55812;DHT22;41742;52.048;6.092;2022-11-12T06:28:03;3.70;99.90
55812;DHT22;41742;52.048;6.092;2022-11-12T06:30:47;3.60;99.90
55812;DHT22;41742;52.048;6.092;2022-11-12T06:33:31;3.60;99.90
55812;DHT22;41742;52.048;6.092;2022-11-12T06:36:18;3.70;99.90
55812;DHT22;41742;52.048;6.092;2022-11-12T06:39:02;3.70;99.90
55812;DHT22;41742;52.048;6.092;2022-11-12T06:41:46;3.80;99.90
55812;DHT22;41742;52.048;6.092;2022-11-12T06:44:31;3.70;99.90
55812;DHT22;41742;52.048;6.092;2022-11-12T06:47:15;3.70;99.90
55812;DHT22;41742;52.048;6.092;2022-11-12T06:49:59;3.70;99.90
55812;DHT22;41742;52.048;6.092;2022-11-12T06:52:43;3.60;99.90
55812;DHT22;41742;52.048;6.092;2022-11-12T06:55:27;3.50;99.90
55812;DHT22;41742;52.048;6.092;2022-11-12T06:58:11;3.50;99.90
55812;DHT22;41742;52.048;6.092;2022-11-12T07:00:55;3.60;99.90
55812;DHT22;41742;52.048;6.092;2022-11-12T07:03:40;3.60;99.90
55812;DHT22;41742;52.048;6.092;2022-11-12T07:06:25;3.50;99.90
55812;DHT22;41742;52.048;6.092;2022-11-12T07:09:09;3.50;99.90
55812;DHT22;41742;52.048;6.092;2022-11-12T07:11:54;3.60;99.90
55812;DHT22;41742;52.048;6.092;2022-11-12T07:14:38;3.60;99.90
55812;DHT22;41742;52.048;6.092;2022-11-12T07:17:22;3.50;99.90
55812;DHT22;41742;52.048;6.092;2022-11-12T07:20:06;3.60;99.90
55812;DHT22;41742;52.048;6.092;2022-11-12T07:22:51;3.60;99.90
55812;DHT22;41742;52.048;6.092;2022-11-12T07:25:35;3.60;99.90
55812;DHT22;41742;52.048;6.092;2022-11-12T07:28:19;3.50;99.90
55812;DHT22;41742;52.048;6.092;2022-11-12T07:31:06;3.60;99.90
55812;DHT22;41742;52.048;6.092;2022-11-12T07:33:50;3.60;99.90
55812;DHT22;41742;52.048;6.092;2022-11-12T07:36:35;3.60;99.90
55812;DHT22;41742;52.048;6.092;2022-11-12T07:39:19;3.70;99.90
55812;DHT22;41742;52.048;6.092;2022-11-12T07:42:03;3.80;99.90
55812;DHT22;41742;52.048;6.092;2022-11-12T07:44:47;3.80;99.90
55812;DHT22;41742;52.048;6.092;2022-11-12T07:47:31;3.80;99.90
55812;DHT22;41742;52.048;6.092;2022-11-12T07:50:15;3.70;99.90
55812;DHT22;41742;52.048;6.092;2022-11-12T07:52:59;3.80;99.90
55812;DHT22;41742;52.048;6.092;2022-11-12T07:55:52;3.90;99.90
55812;DHT22;41742;52.048;6.092;2022-11-12T07:58:36;3.90;99.90
55812;DHT22;41742;52.048;6.092;2022-11-12T08:01:38;4.10;99.90
55812;DHT22;41742;52.048;6.092;2022-11-12T08:04:22;4.10;99.90
55812;DHT22;41742;52.048;6.092;2022-11-12T08:07:06;4.10;99.90
55812;DHT22;41742;52.048;6.092;2022-11-12T08:09:50;4.10;99.90
55812;DHT22;41742;52.048;6.092;2022-11-12T08:12:34;4.20;99.90
55812;DHT22;41742;52.048;6.092;2022-11-12T08:15:18;4.40;99.90
55812;DHT22;41742;52.048;6.092;2022-11-12T08:18:02;4.40;99.90
55812;DHT22;41742;52.048;6.092;2022-11-12T08:20:46;4.50;99.90
55812;DHT22;41742;52.048;6.092;2022-11-12T08:23:30;4.50;99.90
55812;DHT22;41742;52.048;6.092;2022-11-12T08:26:16;4.60;99.90
55812;DHT22;41742;52.048;6.092;2022-11-12T08:29:02;4.60;99.90
55812;DHT22;41742;52.048;6.092;2022-11-12T08:31:46;4.70;99.90
55812;DHT22;41742;52.048;6.092;2022-11-12T08:34:31;4.80;99.90
55812;DHT22;41742;52.048;6.092;2022-11-12T08:37:15;4.90;99.90
55812;DHT22;41742;52.048;6.092;2022-11-12T08:39:59;5.00;99.90
55812;DHT22;41742;52.048;6.092;2022-11-12T08:42:43;5.10;99.90
55812;DHT22;41742;52.048;6.092;2022-11-12T08:45:28;5.10;99.90
55812;DHT22;41742;52.048;6.092;2022-11-12T08:48:13;5.20;99.90
55812;DHT22;41742;52.048;6.092;2022-11-12T08:51:00;5.30;99.90
55812;DHT22;41742;52.048;6.092;2022-11-12T08:53:45;5.50;99.90
55812;DHT22;41742;52.048;6.092;2022-11-12T08:56:29;5.70;99.90
55812;DHT22;41742;52.048;6.092;2022-11-12T08:59:13;5.70;99.90
55812;DHT22;41742;52.048;6.092;2022-11-12T09:01:57;5.80;99.90
55812;DHT22;41742;52.048;6.092;2022-11-12T09:04:41;5.80;99.90
55812;DHT22;41742;52.048;6.092;2022-11-12T09:07:25;6.00;99.90
55812;DHT22;41742;52.048;6.092;2022-11-12T09:10:10;6.00;99.90
55812;DHT22;41742;52.048;6.092;2022-11-12T09:12:54;6.10;99.90
55812;DHT22;41742;52.048;6.092;2022-11-12T09:15:39;6.10;99.90
55812;DHT22;41742;52.048;6.092;2022-11-12T09:18:23;6.20;99.90
55812;DHT22;41742;52.048;6.092;2022-11-12T09:21:10;6.30;99.90
55812;DHT22;41742;52.048;6.092;2022-11-12T09:23:55;6.40;99.90
55812;DHT22;41742;52.048;6.092;2022-11-12T09:26:39;6.50;99.90
55812;DHT22;41742;52.048;6.092;2022-11-12T09:29:23;6.60;99.90
55812;DHT22;41742;52.048;6.092;2022-11-12T09:32:07;6.60;99.90
55812;DHT22;41742;52.048;6.092;2022-11-12T09:34:51;6.70;99.90
55812;DHT22;41742;52.048;6.092;2022-11-12T09:37:38;6.80;99.90
55812;DHT22;41742;52.048;6.092;2022-11-12T09:40:40;6.90;99.90
55812;DHT22;41742;52.048;6.092;2022-11-12T09:43:36;6.90;99.90
55812;DHT22;41742;52.048;6.092;2022-11-12T09:52:02;7.30;99.90
55812;DHT22;41742;52.048;6.092;2022-11-12T09:54:51;7.50;99.90
55812;DHT22;41742;52.048;6.092;2022-11-12T09:57:40;7.50;99.90
55812;DHT22;41742;52.048;6.092;2022-11-12T10:00:24;7.50;99.90
55812;DHT22;41742;52.048;6.092;2022-11-12T10:06:49;7.60;99.90
55812;DHT22;41742;52.048;6.092;2022-11-12T10:12:55;7.70;99.90
55812;DHT22;41742;52.048;6.092;2022-11-12T10:25:18;8.10;99.90
55812;DHT22;41742;52.048;6.092;2022-11-12T10:31:14;8.30;99.90
55812;DHT22;41742;52.048;6.092;2022-11-12T10:34:18;8.40;99.90
55812;DHT22;41742;52.048;6.092;2022-11-12T10:37:06;8.50;99.90
55812;DHT22;41742;52.048;6.092;2022-11-12T10:39:54;8.70;99.90
55812;DHT22;41742;52.048;6.092;2022-11-12T10:42:58;8.80;99.90
55812;DHT22;41742;52.048;6.092;2022-11-12T10:45:43;8.90;99.90
55812;DHT22;41742;52.048;6.092;2022-11-12T10:48:30;9.10;99.90
55812;DHT22;41742;52.048;6.092;2022-11-12T10:51:32;9.20;99.90
55812;DHT22;41742;52.048;6.092;2022-11-12T10:57:22;9.20;99.90
55812;DHT22;41742;52.048;6.092;2022-11-12T11:00:19;9.40;99.90
55812;DHT22;41742;52.048;6.092;2022-11-12T11:03:18;9.50;99.90
55812;DHT22;41742;52.048;6.092;2022-11-12T11:06:20;9.60;99.90
55812;DHT22;41742;52.048;6.092;2022-11-12T11:09:14;9.90;99.90
55812;DHT22;41742;52.048;6.092;2022-11-12T11:11:59;10.10;99.90
55812;DHT22;41742;52.048;6.092;2022-11-12T11:14:44;10.30;99.90
55812;DHT22;41742;52.048;6.092;2022-11-12T11:17:28;10.40;99.90
55812;DHT22;41742;52.048;6.092;2022-11-12T11:20:26;10.60;99.90
55812;DHT22;41742;52.048;6.092;2022-11-12T11:23:19;10.70;99.90
55812;DHT22;41742;52.048;6.092;2022-11-12T11:26:14;10.80;99.90
55812;DHT22;41742;52.048;6.092;2022-11-12T11:39:00;11.20;99.90
55812;DHT22;41742;52.048;6.092;2022-11-12T11:45:15;11.30;99.90
55812;DHT22;41742;52.048;6.092;2022-11-12T11:48:16;11.40;99.90
55812;DHT22;41742;52.048;6.092;2022-11-12T11:51:35;11.40;99.90
55812;DHT22;41742;52.048;6.092;2022-11-12T11:57:43;11.60;99.90
55812;DHT22;41742;52.048;6.092;2022-11-12T12:00:49;11.80;99.90
55812;DHT22;41742;52.048;6.092;2022-11-12T12:10:05;12.30;99.90
55812;DHT22;41742;52.048;6.092;2022-11-12T12:13:05;12.40;99.90
55812;DHT22;41742;52.048;6.092;2022-11-12T12:19:32;12.50;99.90
55812;DHT22;41742;52.048;6.092;2022-11-12T12:22:24;12.60;99.90
55812;DHT22;41742;52.048;6.092;2022-11-12T12:25:34;12.60;99.90
55812;DHT22;41742;52.048;6.092;2022-11-12T12:28:26;12.80;99.90
55812;DHT22;41742;52.048;6.092;2022-11-12T12:31:15;12.90;99.90
55812;DHT22;41742;52.048;6.092;2022-11-12T12:34:18;13.00;99.90
55812;DHT22;41742;52.048;6.092;2022-11-12T12:37:19;13.20;99.90
55812;DHT22;41742;52.048;6.092;2022-11-12T12:40:17;13.40;99.90
55812;DHT22;41742;52.048;6.092;2022-11-12T12:44:18;13.60;99.90
55812;DHT22;41742;52.048;6.092;2022-11-12T12:46:38;13.80;99.90
55812;DHT22;41742;52.048;6.092;2022-11-12T12:49:30;14.10;99.90
55812;DHT22;41742;52.048;6.092;2022-11-12T12:52:16;14.20;99.90
55812;DHT22;41742;52.048;6.092;2022-11-12T12:55:00;14.30;99.90
55812;DHT22;41742;52.048;6.092;2022-11-12T12:57:44;14.50;99.90
55812;DHT22;41742;52.048;6.092;2022-11-12T13:00:39;14.50;99.90
55812;DHT22;41742;52.048;6.092;2022-11-12T13:06:31;14.50;99.90
55812;DHT22;41742;52.048;6.092;2022-11-12T13:12:01;14.50;99.90
55812;DHT22;41742;52.048;6.092;2022-11-12T13:14:54;14.60;99.90
55812;DHT22;41742;52.048;6.092;2022-11-12T13:17:50;14.60;99.90
55812;DHT22;41742;52.048;6.092;2022-11-12T13:20:39;14.50;99.90
55812;DHT22;41742;52.048;6.092;2022-11-12T13:23:57;14.40;99.90
55812;DHT22;41742;52.048;6.092;2022-11-12T13:26:55;14.10;99.90
55812;DHT22;41742;52.048;6.092;2022-11-12T13:29:41;13.90;99.90
55812;DHT22;41742;52.048;6.092;2022-11-12T13:41:16;13.40;99.90
55812;DHT22;41742;52.048;6.092;2022-11-12T13:44:12;13.30;99.90
55812;DHT22;41742;52.048;6.092;2022-11-12T13:46:59;13.20;99.90
55812;DHT22;41742;52.048;6.092;2022-11-12T13:49:44;13.20;99.90
55812;DHT22;41742;52.048;6.092;2022-11-12T13:52:29;13.10;99.90
55812;DHT22;41742;52.048;6.092;2022-11-12T13:55:19;13.00;99.90
55812;DHT22;41742;52.048;6.092;2022-11-12T13:58:14;12.90;99.90
55812;DHT22;41742;52.048;6.092;2022-11-12T14:01:03;12.80;99.90
55812;DHT22;41742;52.048;6.092;2022-11-12T14:03:52;12.70;99.90
55812;DHT22;41742;52.048;6.092;2022-11-12T14:06:39;12.60;99.90
55812;DHT22;41742;52.048;6.092;2022-11-12T14:09:49;12.50;99.90
55812;DHT22;41742;52.048;6.092;2022-11-12T14:15:46;12.40;99.90
55812;DHT22;41742;52.048;6.092;2022-11-12T14:21:32;12.20;99.90
55812;DHT22;41742;52.048;6.092;2022-11-12T14:24:17;12.20;99.90
55812;DHT22;41742;52.048;6.092;2022-11-12T14:27:01;12.10;99.90
55812;DHT22;41742;52.048;6.092;2022-11-12T14:29:45;12.10;99.90
55812;DHT22;41742;52.048;6.092;2022-11-12T14:32:34;12.00;99.90
55812;DHT22;41742;52.048;6.092;2022-11-12T14:35:31;11.90;99.90
55812;DHT22;41742;52.048;6.092;2022-11-12T14:38:27;11.80;99.90
55812;DHT22;41742;52.048;6.092;2022-11-12T14:41:33;11.70;99.90
55812;DHT22;41742;52.048;6.092;2022-11-12T14:44:38;11.60;99.90
55812;DHT22;41742;52.048;6.092;2022-11-12T14:47:22;11.60;99.90
55812;DHT22;41742;52.048;6.092;2022-11-12T14:50:29;11.60;99.90
55812;DHT22;41742;52.048;6.092;2022-11-12T14:53:42;11.50;99.90
55812;DHT22;41742;52.048;6.092;2022-11-12T14:56:33;11.50;99.90
55812;DHT22;41742;52.048;6.092;2022-11-12T14:59:18;11.50;99.90
55812;DHT22;41742;52.048;6.092;2022-11-12T15:02:28;11.40;99.90
55812;DHT22;41742;52.048;6.092;2022-11-12T15:05:18;11.40;99.90
55812;DHT22;41742;52.048;6.092;2022-11-12T15:10:48;11.20;99.90
55812;DHT22;41742;52.048;6.092;2022-11-12T15:13:37;11.10;99.90
55812;DHT22;41742;52.048;6.092;2022-11-12T15:16:31;11.10;99.90
55812;DHT22;41742;52.048;6.092;2022-11-12T15:19:25;11.00;99.90
55812;DHT22;41742;52.048;6.092;2022-11-12T15:22:19;11.00;99.90
55812;DHT22;41742;52.048;6.092;2022-11-12T15:25:16;11.00;99.90
55812;DHT22;41742;52.048;6.092;2022-11-12T15:28:31;10.80;99.90
55812;DHT22;41742;52.048;6.092;2022-11-12T15:31:18;10.80;99.90
55812;DHT22;41742;52.048;6.092;2022-11-12T15:37:11;10.70;99.90
55812;DHT22;41742;52.048;6.092;2022-11-12T15:40:08;10.60;99.90
55812;DHT22;41742;52.048;6.092;2022-11-12T15:42:53;10.50;99.90
55812;DHT22;41742;52.048;6.092;2022-11-12T15:45:38;10.50;99.90
55812;DHT22;41742;52.048;6.092;2022-11-12T15:48:22;10.40;99.90
55812;DHT22;41742;52.048;6.092;2022-11-12T15:51:10;10.30;99.90
55812;DHT22;41742;52.048;6.092;2022-11-12T15:53:55;10.30;99.90
55812;DHT22;41742;52.048;6.092;2022-11-12T15:56:39;10.20;99.90
55812;DHT22;41742;52.048;6.092;2022-11-12T15:59:23;10.10;99.90
55812;DHT22;41742;52.048;6.092;2022-11-12T16:02:13;10.10;99.90
55812;DHT22;41742;52.048;6.092;2022-11-12T16:04:58;10.00;99.90
55812;DHT22;41742;52.048;6.092;2022-11-12T16:07:46;10.00;99.90
55812;DHT22;41742;52.048;6.092;2022-11-12T16:10:30;9.90;99.90
55812;DHT22;41742;52.048;6.092;2022-11-12T16:13:32;9.80;99.90
55812;DHT22;41742;52.048;6.092;2022-11-12T16:16:16;9.70;99.90
55812;DHT22;41742;52.048;6.092;2022-11-12T16:19:00;9.60;99.90
55812;DHT22;41742;52.048;6.092;2022-11-12T16:21:45;9.60;99.90
55812;DHT22;41742;52.048;6.092;2022-11-12T16:24:29;9.60;99.90
55812;DHT22;41742;52.048;6.092;2022-11-12T16:27:13;9.50;99.90
55812;DHT22;41742;52.048;6.092;2022-11-12T16:29:58;9.50;99.90
55812;DHT22;41742;52.048;6.092;2022-11-12T16:32:42;9.40;99.90
55812;DHT22;41742;52.048;6.092;2022-11-12T16:35:27;9.30;99.90
55812;DHT22;41742;52.048;6.092;2022-11-12T16:38:14;9.20;99.90
55812;DHT22;41742;52.048;6.092;2022-11-12T16:40:59;9.10;99.90
55812;DHT22;41742;52.048;6.092;2022-11-12T16:43:43;9.20;99.90
55812;DHT22;41742;52.048;6.092;2022-11-12T16:46:29;9.10;99.90
55812;DHT22;41742;52.048;6.092;2022-11-12T16:49:14;9.10;99.90
55812;DHT22;41742;52.048;6.092;2022-11-12T16:51:59;9.00;99.90
55812;DHT22;41742;52.048;6.092;2022-11-12T16:54:43;9.00;99.90
55812;DHT22;41742;52.048;6.092;2022-11-12T16:57:27;8.90;99.90
55812;DHT22;41742;52.048;6.092;2022-11-12T17:00:12;8.90;99.90
55812;DHT22;41742;52.048;6.092;2022-11-12T17:02:57;8.90;99.90
55812;DHT22;41742;52.048;6.092;2022-11-12T17:05:41;8.90;99.90
55812;DHT22;41742;52.048;6.092;2022-11-12T17:08:25;8.90;99.90
55812;DHT22;41742;52.048;6.092;2022-11-12T17:11:13;8.80;99.90
55812;DHT22;41742;52.048;6.092;2022-11-12T17:13:58;8.80;99.90
55812;DHT22;41742;52.048;6.092;2022-11-12T17:16:42;8.70;99.90
55812;DHT22;41742;52.048;6.092;2022-11-12T17:19:27;8.60;99.90
55812;DHT22;41742;52.048;6.092;2022-11-12T17:22:12;8.60;99.90
55812;DHT22;41742;52.048;6.092;2022-11-12T17:24:56;8.50;99.90
55812;DHT22;41742;52.048;6.092;2022-11-12T17:27:40;8.50;99.90
55812;DHT22;41742;52.048;6.092;2022-11-12T17:30:24;8.40;99.90
55812;DHT22;41742;52.048;6.092;2022-11-12T17:33:08;8.40;99.90
55812;DHT22;41742;52.048;6.092;2022-11-12T17:35:52;8.40;99.90
55812;DHT22;41742;52.048;6.092;2022-11-12T17:38:37;8.30;99.90
55812;DHT22;41742;52.048;6.092;2022-11-12T17:41:21;8.20;99.90
55812;DHT22;41742;52.048;6.092;2022-11-12T17:44:06;8.10;99.90
55812;DHT22;41742;52.048;6.092;2022-11-12T17:46:50;8.10;99.90
55812;DHT22;41742;52.048;6.092;2022-11-12T17:49:34;8.00;99.90
55812;DHT22;41742;52.048;6.092;2022-11-12T17:52:19;8.00;99.90
55812;DHT22;41742;52.048;6.092;2022-11-12T17:55:03;8.00;99.90
55812;DHT22;41742;52.048;6.092;2022-11-12T17:57:48;7.90;99.90
55812;DHT22;41742;52.048;6.092;2022-11-12T18:00:32;7.90;99.90
55812;DHT22;41742;52.048;6.092;2022-11-12T18:03:17;7.90;99.90
55812;DHT22;41742;52.048;6.092;2022-11-12T18:06:02;7.90;99.90
55812;DHT22;41742;52.048;6.092;2022-11-12T18:08:46;7.80;99.90
55812;DHT22;41742;52.048;6.092;2022-11-12T18:11:31;7.80;99.90
55812;DHT22;41742;52.048;6.092;2022-11-12T18:14:21;7.80;99.90
55812;DHT22;41742;52.048;6.092;2022-11-12T18:17:05;7.80;99.90
55812;DHT22;41742;52.048;6.092;2022-11-12T18:19:50;7.70;99.90
55812;DHT22;41742;52.048;6.092;2022-11-12T18:22:35;7.70;99.90
55812;DHT22;41742;52.048;6.092;2022-11-12T18:25:19;7.60;99.90
55812;DHT22;41742;52.048;6.092;2022-11-12T18:28:04;7.60;99.90
55812;DHT22;41742;52.048;6.092;2022-11-12T18:30:48;7.50;99.90
55812;DHT22;41742;52.048;6.092;2022-11-12T18:33:33;7.60;99.90
55812;DHT22;41742;52.048;6.092;2022-11-12T18:36:21;7.60;99.90
55812;DHT22;41742;52.048;6.092;2022-11-12T18:39:09;7.50;99.90
55812;DHT22;41742;52.048;6.092;2022-11-12T18:41:53;7.40;99.90
55812;DHT22;41742;52.048;6.092;2022-11-12T18:44:37;7.30;99.90
55812;DHT22;41742;52.048;6.092;2022-11-12T18:47:22;7.30;99.90
55812;DHT22;41742;52.048;6.092;2022-11-12T18:50:06;7.30;99.90
55812;DHT22;41742;52.048;6.092;2022-11-12T18:52:50;7.20;99.90
55812;DHT22;41742;52.048;6.092;2022-11-12T18:55:34;7.20;99.90
55812;DHT22;41742;52.048;6.092;2022-11-12T18:58:19;7.30;99.90
55812;DHT22;41742;52.048;6.092;2022-11-12T19:01:06;7.30;99.90
55812;DHT22;41742;52.048;6.092;2022-11-12T19:03:53;7.30;99.90
55812;DHT22;41742;52.048;6.092;2022-11-12T19:06:37;7.30;99.90
55812;DHT22;41742;52.048;6.092;2022-11-12T19:09:21;7.30;99.90
55812;DHT22;41742;52.048;6.092;2022-11-12T19:12:06;7.20;99.90
55812;DHT22;41742;52.048;6.092;2022-11-12T19:14:50;7.20;99.90